sensor_id;sensor_type;location;lat;lon;timestamp;P1;durP1;ratioP1;P2;durP2;ratioP2
23680;SDS011;62915;50.832;4.462;2022-11-15T00:00:49;30.48;;;20.77;;
23680;SDS011;62915;50.832;4.462;2022-11-15T00:03:16;28.55;;;20.50;;
23680;SDS011;62915;50.832;4.462;2022-11-15T00:05:44;31.83;;;20.58;;
23680;SDS011;62915;50.832;4.462;2022-11-15T00:08:10;25.55;;;20.38;;
23680;SDS011;62915;50.832;4.462;2022-11-15T00:10:36;29.10;;;20.38;;
23680;SDS011;62915;50.832;4.462;2022-11-15T00:13:09;30.75;;;20.88;;
23680;SDS011;62915;50.832;4.462;2022-11-15T00:15:37;30.70;;;22.35;;
23680;SDS011;62915;50.832;4.462;2022-11-15T00:18:04;29.45;;;20.98;;
23680;SDS011;62915;50.832;4.462;2022-11-15T00:20:31;30.15;;;21.75;;
23680;SDS011;62915;50.832;4.462;2022-11-15T00:22:59;39.53;;;22.60;;
23680;SDS011;62915;50.832;4.462;2022-11-15T00:25:25;35.45;;;22.50;;
23680;SDS011;62915;50.832;4.462;2022-11-15T00:27:54;30.15;;;21.77;;
23680;SDS011;62915;50.832;4.462;2022-11-15T00:30:22;38.95;;;23.85;;
23680;SDS011;62915;50.832;4.462;2022-11-15T00:32:48;35.47;;;22.80;;
23680;SDS011;62915;50.832;4.462;2022-11-15T00:35:14;36.33;;;23.50;;
23680;SDS011;62915;50.832;4.462;2022-11-15T00:37:40;32.47;;;21.27;;
23680;SDS011;62915;50.832;4.462;2022-11-15T00:40:06;37.20;;;22.35;;
23680;SDS011;62915;50.832;4.462;2022-11-15T00:42:32;33.17;;;22.08;;
23680;SDS011;62915;50.832;4.462;2022-11-15T00:44:58;30.88;;;21.80;;
23680;SDS011;62915;50.832;4.462;2022-11-15T00:47:24;30.38;;;21.98;;
23680;SDS011;62915;50.832;4.462;2022-11-15T00:49:49;42.38;;;22.40;;
23680;SDS011;62915;50.832;4.462;2022-11-15T00:52:15;36.72;;;24.30;;
23680;SDS011;62915;50.832;4.462;2022-11-15T00:54:41;41.58;;;23.90;;
23680;SDS011;62915;50.832;4.462;2022-11-15T00:57:07;36.83;;;25.25;;
23680;SDS011;62915;50.832;4.462;2022-11-15T00:59:32;38.22;;;24.50;;
23680;SDS011;62915;50.832;4.462;2022-11-15T01:01:58;37.35;;;25.20;;
23680;SDS011;62915;50.832;4.462;2022-11-15T01:04:24;43.17;;;28.05;;
23680;SDS011;62915;50.832;4.462;2022-11-15T01:06:50;44.08;;;26.90;;
23680;SDS011;62915;50.832;4.462;2022-11-15T01:09:15;40.95;;;25.50;;
23680;SDS011;62915;50.832;4.462;2022-11-15T01:11:41;42.45;;;26.23;;
23680;SDS011;62915;50.832;4.462;2022-11-15T01:14:07;44.35;;;27.33;;
23680;SDS011;62915;50.832;4.462;2022-11-15T01:16:32;44.40;;;27.08;;
23680;SDS011;62915;50.832;4.462;2022-11-15T01:18:58;41.80;;;26.20;;
23680;SDS011;62915;50.832;4.462;2022-11-15T01:21:24;41.30;;;26.10;;
23680;SDS011;62915;50.832;4.462;2022-11-15T01:23:54;46.60;;;27.23;;
23680;SDS011;62915;50.832;4.462;2022-11-15T01:26:21;42.28;;;27.08;;
23680;SDS011;62915;50.832;4.462;2022-11-15T01:28:47;43.95;;;27.95;;
23680;SDS011;62915;50.832;4.462;2022-11-15T01:31:22;43.72;;;26.25;;
23680;SDS011;62915;50.832;4.462;2022-11-15T01:33:48;45.67;;;28.05;;
23680;SDS011;62915;50.832;4.462;2022-11-15T01:36:18;43.58;;;27.50;;
23680;SDS011;62915;50.832;4.462;2022-11-15T01:38:47;41.22;;;27.75;;
23680;SDS011;62915;50.832;4.462;2022-11-15T01:41:20;42.38;;;25.98;;
23680;SDS011;62915;50.832;4.462;2022-11-15T01:43:53;40.20;;;26.38;;
23680;SDS011;62915;50.832;4.462;2022-11-15T01:46:42;35.25;;;25.00;;
23680;SDS011;62915;50.832;4.462;2022-11-15T01:49:18;37.25;;;24.25;;
23680;SDS011;62915;50.832;4.462;2022-11-15T01:51:45;37.00;;;24.52;;
23680;SDS011;62915;50.832;4.462;2022-11-15T01:54:13;32.58;;;23.05;;
23680;SDS011;62915;50.832;4.462;2022-11-15T01:56:47;32.53;;;22.95;;
23680;SDS011;62915;50.832;4.462;2022-11-15T01:59:17;33.47;;;22.30;;
23680;SDS011;62915;50.832;4.462;2022-11-15T02:01:44;36.05;;;22.48;;
23680;SDS011;62915;50.832;4.462;2022-11-15T02:06:42;29.60;;;20.58;;
23680;SDS011;62915;50.832;4.462;2022-11-15T02:09:09;32.00;;;20.30;;
23680;SDS011;62915;50.832;4.462;2022-11-15T02:11:35;28.55;;;18.80;;
23680;SDS011;62915;50.832;4.462;2022-11-15T02:14:01;29.90;;;20.77;;
23680;SDS011;62915;50.832;4.462;2022-11-15T02:19:19;26.17;;;18.15;;
23680;SDS011;62915;50.832;4.462;2022-11-15T02:36:26;24.75;;;17.65;;
23680;SDS011;62915;50.832;4.462;2022-11-15T02:44:36;31.52;;;17.27;;
23680;SDS011;62915;50.832;4.462;2022-11-15T02:47:09;25.17;;;16.45;;
23680;SDS011;62915;50.832;4.462;2022-11-15T02:49:47;25.92;;;17.20;;
23680;SDS011;62915;50.832;4.462;2022-11-15T02:52:15;24.05;;;17.17;;
23680;SDS011;62915;50.832;4.462;2022-11-15T02:54:42;24.52;;;16.33;;
23680;SDS011;62915;50.832;4.462;2022-11-15T02:57:15;27.17;;;17.42;;
23680;SDS011;62915;50.832;4.462;2022-11-15T03:16:30;20.95;;;15.50;;
23680;SDS011;62915;50.832;4.462;2022-11-15T03:19:00;22.63;;;15.35;;
23680;SDS011;62915;50.832;4.462;2022-11-15T03:21:35;26.35;;;14.23;;
23680;SDS011;62915;50.832;4.462;2022-11-15T03:24:03;21.70;;;14.23;;
23680;SDS011;62915;50.832;4.462;2022-11-15T03:26:31;22.55;;;14.23;;
23680;SDS011;62915;50.832;4.462;2022-11-15T03:29:21;20.48;;;14.15;;
23680;SDS011;62915;50.832;4.462;2022-11-15T03:31:49;22.45;;;13.38;;
23680;SDS011;62915;50.832;4.462;2022-11-15T03:34:25;18.48;;;13.27;;
23680;SDS011;62915;50.832;4.462;2022-11-15T03:36:55;17.15;;;12.30;;
23680;SDS011;62915;50.832;4.462;2022-11-15T03:39:21;19.20;;;12.10;;
23680;SDS011;62915;50.832;4.462;2022-11-15T03:41:50;17.38;;;10.75;;
23680;SDS011;62915;50.832;4.462;2022-11-15T03:44:31;15.48;;;10.48;;
23680;SDS011;62915;50.832;4.462;2022-11-15T03:49:34;14.65;;;9.32;;
23680;SDS011;62915;50.832;4.462;2022-11-15T03:52:03;16.15;;;10.13;;
23680;SDS011;62915;50.832;4.462;2022-11-15T03:54:30;13.60;;;9.38;;
23680;SDS011;62915;50.832;4.462;2022-11-15T03:56:56;16.85;;;9.13;;
23680;SDS011;62915;50.832;4.462;2022-11-15T03:59:22;14.32;;;8.43;;
23680;SDS011;62915;50.832;4.462;2022-11-15T04:01:47;16.05;;;8.38;;
23680;SDS011;62915;50.832;4.462;2022-11-15T04:04:13;10.57;;;8.30;;
23680;SDS011;62915;50.832;4.462;2022-11-15T04:06:39;11.10;;;8.05;;
23680;SDS011;62915;50.832;4.462;2022-11-15T04:09:04;13.55;;;7.65;;
23680;SDS011;62915;50.832;4.462;2022-11-15T04:11:30;11.93;;;7.20;;
23680;SDS011;62915;50.832;4.462;2022-11-15T04:13:56;14.43;;;7.05;;
23680;SDS011;62915;50.832;4.462;2022-11-15T04:16:21;12.73;;;7.55;;
23680;SDS011;62915;50.832;4.462;2022-11-15T04:18:47;12.95;;;7.93;;
23680;SDS011;62915;50.832;4.462;2022-11-15T04:21:33;14.13;;;8.13;;
23680;SDS011;62915;50.832;4.462;2022-11-15T04:24:17;16.20;;;8.23;;
23680;SDS011;62915;50.832;4.462;2022-11-15T04:26:42;16.70;;;8.50;;
23680;SDS011;62915;50.832;4.462;2022-11-15T04:29:08;15.48;;;8.77;;
23680;SDS011;62915;50.832;4.462;2022-11-15T04:31:52;12.27;;;9.90;;
23680;SDS011;62915;50.832;4.462;2022-11-15T04:34:18;17.40;;;10.45;;
23680;SDS011;62915;50.832;4.462;2022-11-15T04:36:43;18.55;;;10.52;;
23680;SDS011;62915;50.832;4.462;2022-11-15T04:39:27;15.30;;;9.88;;
23680;SDS011;62915;50.832;4.462;2022-11-15T04:41:53;11.88;;;9.60;;
23680;SDS011;62915;50.832;4.462;2022-11-15T04:44:19;12.82;;;9.35;;
23680;SDS011;62915;50.832;4.462;2022-11-15T04:46:44;14.57;;;9.25;;
23680;SDS011;62915;50.832;4.462;2022-11-15T04:49:10;14.45;;;8.18;;
23680;SDS011;62915;50.832;4.462;2022-11-15T04:51:35;11.93;;;7.90;;
23680;SDS011;62915;50.832;4.462;2022-11-15T04:54:01;11.75;;;8.00;;
23680;SDS011;62915;50.832;4.462;2022-11-15T04:56:27;12.73;;;7.80;;
23680;SDS011;62915;50.832;4.462;2022-11-15T04:58:52;15.80;;;7.35;;
23680;SDS011;62915;50.832;4.462;2022-11-15T05:01:18;10.82;;;6.30;;
23680;SDS011;62915;50.832;4.462;2022-11-15T05:03:44;10.52;;;7.00;;
23680;SDS011;62915;50.832;4.462;2022-11-15T05:06:28;11.13;;;6.60;;
23680;SDS011;62915;50.832;4.462;2022-11-15T05:08:54;9.60;;;5.85;;
23680;SDS011;62915;50.832;4.462;2022-11-15T05:11:20;11.13;;;6.10;;
23680;SDS011;62915;50.832;4.462;2022-11-15T05:13:46;15.43;;;6.88;;
23680;SDS011;62915;50.832;4.462;2022-11-15T05:16:12;9.52;;;6.20;;
23680;SDS011;62915;50.832;4.462;2022-11-15T05:18:38;12.65;;;5.43;;
23680;SDS011;62915;50.832;4.462;2022-11-15T05:21:08;12.07;;;5.50;;
23680;SDS011;62915;50.832;4.462;2022-11-15T05:23:35;9.85;;;4.53;;
23680;SDS011;62915;50.832;4.462;2022-11-15T05:26:02;8.38;;;4.35;;
23680;SDS011;62915;50.832;4.462;2022-11-15T05:28:29;14.23;;;5.10;;
23680;SDS011;62915;50.832;4.462;2022-11-15T05:33:33;9.82;;;5.00;;
23680;SDS011;62915;50.832;4.462;2022-11-15T05:36:07;8.55;;;4.55;;
23680;SDS011;62915;50.832;4.462;2022-11-15T05:38:38;10.45;;;4.97;;
23680;SDS011;62915;50.832;4.462;2022-11-15T05:41:04;9.68;;;4.88;;
23680;SDS011;62915;50.832;4.462;2022-11-15T05:43:31;7.78;;;4.95;;
23680;SDS011;62915;50.832;4.462;2022-11-15T05:46:00;9.98;;;4.75;;
23680;SDS011;62915;50.832;4.462;2022-11-15T05:48:28;9.75;;;5.05;;
23680;SDS011;62915;50.832;4.462;2022-11-15T05:50:54;11.70;;;5.25;;
23680;SDS011;62915;50.832;4.462;2022-11-15T05:53:21;9.30;;;5.03;;
23680;SDS011;62915;50.832;4.462;2022-11-15T05:55:49;7.78;;;4.53;;
23680;SDS011;62915;50.832;4.462;2022-11-15T05:58:16;12.05;;;5.05;;
23680;SDS011;62915;50.832;4.462;2022-11-15T06:00:43;8.38;;;4.78;;
23680;SDS011;62915;50.832;4.462;2022-11-15T06:03:09;11.93;;;5.60;;
23680;SDS011;62915;50.832;4.462;2022-11-15T06:05:35;13.00;;;5.72;;
23680;SDS011;62915;50.832;4.462;2022-11-15T06:08:01;10.88;;;5.47;;
23680;SDS011;62915;50.832;4.462;2022-11-15T06:10:26;12.32;;;5.47;;
23680;SDS011;62915;50.832;4.462;2022-11-15T06:13:10;13.30;;;6.47;;
23680;SDS011;62915;50.832;4.462;2022-11-15T06:15:36;9.07;;;5.55;;
23680;SDS011;62915;50.832;4.462;2022-11-15T06:18:03;8.93;;;5.90;;
23680;SDS011;62915;50.832;4.462;2022-11-15T06:20:29;12.77;;;5.95;;
23680;SDS011;62915;50.832;4.462;2022-11-15T06:22:58;11.07;;;5.75;;
23680;SDS011;62915;50.832;4.462;2022-11-15T06:25:25;14.38;;;5.63;;
23680;SDS011;62915;50.832;4.462;2022-11-15T06:27:52;10.68;;;5.55;;
23680;SDS011;62915;50.832;4.462;2022-11-15T06:30:19;9.73;;;5.20;;
23680;SDS011;62915;50.832;4.462;2022-11-15T06:32:45;12.10;;;4.95;;
23680;SDS011;62915;50.832;4.462;2022-11-15T06:35:13;10.93;;;4.97;;
23680;SDS011;62915;50.832;4.462;2022-11-15T06:37:39;9.65;;;5.40;;
23680;SDS011;62915;50.832;4.462;2022-11-15T06:40:06;9.27;;;5.63;;
23680;SDS011;62915;50.832;4.462;2022-11-15T06:42:34;12.40;;;5.20;;
23680;SDS011;62915;50.832;4.462;2022-11-15T06:45:07;12.85;;;5.13;;
23680;SDS011;62915;50.832;4.462;2022-11-15T06:47:33;10.93;;;4.85;;
23680;SDS011;62915;50.832;4.462;2022-11-15T06:49:59;8.88;;;5.10;;
23680;SDS011;62915;50.832;4.462;2022-11-15T06:52:28;8.65;;;5.32;;
23680;SDS011;62915;50.832;4.462;2022-11-15T06:54:58;10.23;;;5.65;;
23680;SDS011;62915;50.832;4.462;2022-11-15T06:57:23;9.10;;;5.35;;
23680;SDS011;62915;50.832;4.462;2022-11-15T06:59:49;9.60;;;5.70;;
23680;SDS011;62915;50.832;4.462;2022-11-15T07:02:15;11.65;;;5.35;;
23680;SDS011;62915;50.832;4.462;2022-11-15T07:04:41;13.25;;;5.63;;
23680;SDS011;62915;50.832;4.462;2022-11-15T07:07:06;9.20;;;5.53;;
23680;SDS011;62915;50.832;4.462;2022-11-15T07:09:32;9.75;;;5.78;;
23680;SDS011;62915;50.832;4.462;2022-11-15T07:12:02;11.18;;;5.47;;
23680;SDS011;62915;50.832;4.462;2022-11-15T07:14:29;7.60;;;5.95;;
23680;SDS011;62915;50.832;4.462;2022-11-15T07:16:55;10.18;;;5.75;;
23680;SDS011;62915;50.832;4.462;2022-11-15T07:19:20;8.85;;;5.38;;
23680;SDS011;62915;50.832;4.462;2022-11-15T07:21:46;8.55;;;5.55;;
23680;SDS011;62915;50.832;4.462;2022-11-15T07:24:13;8.73;;;5.07;;
23680;SDS011;62915;50.832;4.462;2022-11-15T07:26:39;12.45;;;5.80;;
23680;SDS011;62915;50.832;4.462;2022-11-15T07:29:05;11.43;;;5.68;;
23680;SDS011;62915;50.832;4.462;2022-11-15T07:31:31;12.43;;;5.90;;
23680;SDS011;62915;50.832;4.462;2022-11-15T07:33:57;7.72;;;5.65;;
23680;SDS011;62915;50.832;4.462;2022-11-15T07:36:23;10.70;;;5.88;;
23680;SDS011;62915;50.832;4.462;2022-11-15T07:38:48;11.60;;;5.90;;
23680;SDS011;62915;50.832;4.462;2022-11-15T07:41:14;11.80;;;5.78;;
23680;SDS011;62915;50.832;4.462;2022-11-15T07:43:40;13.70;;;5.70;;
23680;SDS011;62915;50.832;4.462;2022-11-15T07:46:06;11.15;;;5.65;;
23680;SDS011;62915;50.832;4.462;2022-11-15T07:48:34;8.00;;;5.43;;
23680;SDS011;62915;50.832;4.462;2022-11-15T07:51:06;10.70;;;5.03;;
23680;SDS011;62915;50.832;4.462;2022-11-15T07:53:32;10.68;;;4.95;;
23680;SDS011;62915;50.832;4.462;2022-11-15T07:55:57;7.93;;;5.53;;
23680;SDS011;62915;50.832;4.462;2022-11-15T07:58:23;10.85;;;5.32;;
23680;SDS011;62915;50.832;4.462;2022-11-15T08:00:49;8.48;;;5.43;;
23680;SDS011;62915;50.832;4.462;2022-11-15T08:03:15;7.82;;;4.85;;
23680;SDS011;62915;50.832;4.462;2022-11-15T08:05:42;6.18;;;4.63;;
23680;SDS011;62915;50.832;4.462;2022-11-15T08:08:09;6.43;;;4.07;;
23680;SDS011;62915;50.832;4.462;2022-11-15T08:10:37;5.10;;;3.75;;
23680;SDS011;62915;50.832;4.462;2022-11-15T08:13:06;5.63;;;3.90;;
23680;SDS011;62915;50.832;4.462;2022-11-15T08:15:34;6.20;;;3.67;;
23680;SDS011;62915;50.832;4.462;2022-11-15T08:18:02;7.70;;;3.83;;
23680;SDS011;62915;50.832;4.462;2022-11-15T08:20:33;8.90;;;3.80;;
23680;SDS011;62915;50.832;4.462;2022-11-15T08:23:02;8.88;;;3.35;;
23680;SDS011;62915;50.832;4.462;2022-11-15T08:25:44;8.05;;;3.28;;
23680;SDS011;62915;50.832;4.462;2022-11-15T08:28:09;7.00;;;2.80;;
23680;SDS011;62915;50.832;4.462;2022-11-15T08:30:36;10.00;;;3.08;;
23680;SDS011;62915;50.832;4.462;2022-11-15T08:33:09;6.68;;;3.50;;
23680;SDS011;62915;50.832;4.462;2022-11-15T08:35:50;9.18;;;2.90;;
23680;SDS011;62915;50.832;4.462;2022-11-15T08:38:17;5.95;;;2.97;;
23680;SDS011;62915;50.832;4.462;2022-11-15T08:40:43;6.30;;;3.03;;
23680;SDS011;62915;50.832;4.462;2022-11-15T08:43:08;10.20;;;3.08;;
23680;SDS011;62915;50.832;4.462;2022-11-15T08:45:34;7.85;;;3.40;;
23680;SDS011;62915;50.832;4.462;2022-11-15T08:48:01;4.55;;;2.80;;
23680;SDS011;62915;50.832;4.462;2022-11-15T08:50:27;6.45;;;2.72;;
23680;SDS011;62915;50.832;4.462;2022-11-15T08:52:53;4.13;;;2.58;;
23680;SDS011;62915;50.832;4.462;2022-11-15T08:55:19;10.25;;;2.95;;
23680;SDS011;62915;50.832;4.462;2022-11-15T08:57:44;8.32;;;2.60;;
23680;SDS011;62915;50.832;4.462;2022-11-15T09:00:10;4.25;;;2.33;;
23680;SDS011;62915;50.832;4.462;2022-11-15T09:02:37;7.80;;;2.55;;
23680;SDS011;62915;50.832;4.462;2022-11-15T09:05:06;3.10;;;2.30;;
23680;SDS011;62915;50.832;4.462;2022-11-15T09:07:32;5.22;;;1.90;;
23680;SDS011;62915;50.832;4.462;2022-11-15T09:09:58;4.95;;;1.60;;
23680;SDS011;62915;50.832;4.462;2022-11-15T09:12:24;4.65;;;1.70;;
23680;SDS011;62915;50.832;4.462;2022-11-15T09:14:50;4.30;;;1.92;;
23680;SDS011;62915;50.832;4.462;2022-11-15T09:17:16;5.50;;;1.92;;
23680;SDS011;62915;50.832;4.462;2022-11-15T09:19:42;4.80;;;1.40;;
23680;SDS011;62915;50.832;4.462;2022-11-15T09:22:08;6.90;;;1.73;;
23680;SDS011;62915;50.832;4.462;2022-11-15T09:24:34;5.15;;;1.58;;
23680;SDS011;62915;50.832;4.462;2022-11-15T09:27:00;3.65;;;1.70;;
23680;SDS011;62915;50.832;4.462;2022-11-15T09:29:25;8.00;;;1.73;;
23680;SDS011;62915;50.832;4.462;2022-11-15T09:31:52;10.20;;;2.05;;
23680;SDS011;62915;50.832;4.462;2022-11-15T09:34:17;8.48;;;1.90;;
23680;SDS011;62915;50.832;4.462;2022-11-15T09:36:44;5.43;;;1.35;;
23680;SDS011;62915;50.832;4.462;2022-11-15T09:39:09;7.60;;;1.70;;
23680;SDS011;62915;50.832;4.462;2022-11-15T09:47:05;4.85;;;1.98;;
23680;SDS011;62915;50.832;4.462;2022-11-15T09:49:33;8.00;;;1.67;;
23680;SDS011;62915;50.832;4.462;2022-11-15T09:52:00;5.72;;;1.60;;
23680;SDS011;62915;50.832;4.462;2022-11-15T09:54:41;5.07;;;1.30;;
23680;SDS011;62915;50.832;4.462;2022-11-15T10:05:20;5.38;;;1.45;;
23680;SDS011;62915;50.832;4.462;2022-11-15T10:11:03;5.50;;;1.20;;
23680;SDS011;62915;50.832;4.462;2022-11-15T10:13:40;8.73;;;1.70;;
23680;SDS011;62915;50.832;4.462;2022-11-15T10:16:12;7.38;;;1.63;;
23680;SDS011;62915;50.832;4.462;2022-11-15T10:18:50;4.43;;;1.55;;
23680;SDS011;62915;50.832;4.462;2022-11-15T10:21:56;3.85;;;1.30;;
23680;SDS011;62915;50.832;4.462;2022-11-15T10:24:24;6.53;;;1.20;;
23680;SDS011;62915;50.832;4.462;2022-11-15T10:26:54;12.77;;;1.60;;
23680;SDS011;62915;50.832;4.462;2022-11-15T10:29:21;4.90;;;1.50;;
23680;SDS011;62915;50.832;4.462;2022-11-15T10:31:48;9.20;;;1.92;;
23680;SDS011;62915;50.832;4.462;2022-11-15T10:37:00;6.20;;;1.42;;
23680;SDS011;62915;50.832;4.462;2022-11-15T10:39:29;9.93;;;1.30;;
23680;SDS011;62915;50.832;4.462;2022-11-15T10:42:02;9.15;;;1.38;;
23680;SDS011;62915;50.832;4.462;2022-11-15T10:44:57;5.93;;;1.65;;
23680;SDS011;62915;50.832;4.462;2022-11-15T10:47:27;6.55;;;1.27;;
23680;SDS011;62915;50.832;4.462;2022-11-15T10:55:01;7.53;;;1.20;;
23680;SDS011;62915;50.832;4.462;2022-11-15T10:57:37;9.70;;;1.98;;
23680;SDS011;62915;50.832;4.462;2022-11-15T11:00:26;7.32;;;1.42;;
23680;SDS011;62915;50.832;4.462;2022-11-15T11:05:34;6.15;;;1.35;;
23680;SDS011;62915;50.832;4.462;2022-11-15T11:08:16;9.23;;;1.42;;
23680;SDS011;62915;50.832;4.462;2022-11-15T11:10:57;5.30;;;1.23;;
23680;SDS011;62915;50.832;4.462;2022-11-15T11:13:26;5.85;;;1.15;;
23680;SDS011;62915;50.832;4.462;2022-11-15T11:15:55;9.80;;;1.52;;
23680;SDS011;62915;50.832;4.462;2022-11-15T11:21:30;7.53;;;1.45;;
23680;SDS011;62915;50.832;4.462;2022-11-15T11:35:08;5.55;;;1.20;;
23680;SDS011;62915;50.832;4.462;2022-11-15T11:37:46;4.95;;;1.23;;
23680;SDS011;62915;50.832;4.462;2022-11-15T11:51:24;4.35;;;1.00;;
23680;SDS011;62915;50.832;4.462;2022-11-15T11:56:40;6.05;;;1.45;;
23680;SDS011;62915;50.832;4.462;2022-11-15T12:01:56;8.77;;;1.20;;
23680;SDS011;62915;50.832;4.462;2022-11-15T12:06:54;8.57;;;1.60;;
23680;SDS011;62915;50.832;4.462;2022-11-15T12:09:44;6.40;;;1.52;;
23680;SDS011;62915;50.832;4.462;2022-11-15T12:12:36;6.68;;;1.65;;
23680;SDS011;62915;50.832;4.462;2022-11-15T12:15:12;11.10;;;1.30;;
23680;SDS011;62915;50.832;4.462;2022-11-15T12:18:00;5.25;;;1.50;;
23680;SDS011;62915;50.832;4.462;2022-11-15T12:20:27;3.03;;;0.90;;
23680;SDS011;62915;50.832;4.462;2022-11-15T12:23:13;4.07;;;1.45;;
23680;SDS011;62915;50.832;4.462;2022-11-15T12:25:53;7.18;;;1.50;;
23680;SDS011;62915;50.832;4.462;2022-11-15T12:28:29;9.10;;;1.45;;
23680;SDS011;62915;50.832;4.462;2022-11-15T12:31:11;3.88;;;1.45;;
23680;SDS011;62915;50.832;4.462;2022-11-15T12:33:57;3.65;;;1.23;;
23680;SDS011;62915;50.832;4.462;2022-11-15T12:38:53;6.20;;;1.20;;
23680;SDS011;62915;50.832;4.462;2022-11-15T12:41:27;5.22;;;1.10;;
23680;SDS011;62915;50.832;4.462;2022-11-15T12:43:55;3.22;;;1.30;;
23680;SDS011;62915;50.832;4.462;2022-11-15T12:48:59;4.00;;;1.48;;
23680;SDS011;62915;50.832;4.462;2022-11-15T12:54:55;4.07;;;1.23;;
23680;SDS011;62915;50.832;4.462;2022-11-15T12:59:54;4.38;;;1.27;;
23680;SDS011;62915;50.832;4.462;2022-11-15T13:17:43;5.60;;;1.52;;
23680;SDS011;62915;50.832;4.462;2022-11-15T13:25:23;2.30;;;1.20;;
23680;SDS011;62915;50.832;4.462;2022-11-15T13:27:53;5.45;;;1.63;;
23680;SDS011;62915;50.832;4.462;2022-11-15T13:30:23;5.10;;;1.48;;
23680;SDS011;62915;50.832;4.462;2022-11-15T13:32:50;4.43;;;1.40;;
23680;SDS011;62915;50.832;4.462;2022-11-15T13:35:21;3.75;;;1.30;;
23680;SDS011;62915;50.832;4.462;2022-11-15T13:37:48;2.45;;;1.30;;
23680;SDS011;62915;50.832;4.462;2022-11-15T13:45:15;2.47;;;1.20;;
23680;SDS011;62915;50.832;4.462;2022-11-15T13:47:43;4.40;;;1.42;;
23680;SDS011;62915;50.832;4.462;2022-11-15T13:50:12;3.00;;;1.40;;
23680;SDS011;62915;50.832;4.462;2022-11-15T13:52:39;4.22;;;1.35;;
23680;SDS011;62915;50.832;4.462;2022-11-15T13:55:12;3.88;;;1.20;;
23680;SDS011;62915;50.832;4.462;2022-11-15T13:57:44;2.83;;;1.25;;
23680;SDS011;62915;50.832;4.462;2022-11-15T14:03:06;3.38;;;1.55;;
23680;SDS011;62915;50.832;4.462;2022-11-15T14:06:12;4.95;;;1.38;;
23680;SDS011;62915;50.832;4.462;2022-11-15T14:11:36;2.72;;;1.55;;
23680;SDS011;62915;50.832;4.462;2022-11-15T14:14:14;3.25;;;1.40;;
23680;SDS011;62915;50.832;4.462;2022-11-15T14:19:11;2.78;;;1.27;;
23680;SDS011;62915;50.832;4.462;2022-11-15T14:24:47;4.68;;;1.45;;
23680;SDS011;62915;50.832;4.462;2022-11-15T14:28:10;2.70;;;1.35;;
23680;SDS011;62915;50.832;4.462;2022-11-15T14:30:39;3.25;;;1.65;;
23680;SDS011;62915;50.832;4.462;2022-11-15T14:35:46;1.92;;;1.35;;
23680;SDS011;62915;50.832;4.462;2022-11-15T14:38:12;2.30;;;1.30;;
23680;SDS011;62915;50.832;4.462;2022-11-15T14:40:38;3.08;;;1.65;;
23680;SDS011;62915;50.832;4.462;2022-11-15T14:43:04;3.90;;;1.58;;
23680;SDS011;62915;50.832;4.462;2022-11-15T14:45:29;4.00;;;1.65;;
23680;SDS011;62915;50.832;4.462;2022-11-15T14:47:55;2.78;;;1.38;;
23680;SDS011;62915;50.832;4.462;2022-11-15T14:50:21;3.45;;;1.58;;
23680;SDS011;62915;50.832;4.462;2022-11-15T14:52:47;5.60;;;1.88;;
23680;SDS011;62915;50.832;4.462;2022-11-15T14:55:18;5.85;;;1.90;;
23680;SDS011;62915;50.832;4.462;2022-11-15T14:57:57;2.60;;;1.80;;
23680;SDS011;62915;50.832;4.462;2022-11-15T15:00:23;4.32;;;1.88;;
23680;SDS011;62915;50.832;4.462;2022-11-15T15:02:50;4.80;;;2.08;;
23680;SDS011;62915;50.832;4.462;2022-11-15T15:05:20;2.53;;;1.80;;
23680;SDS011;62915;50.832;4.462;2022-11-15T15:07:48;3.38;;;1.77;;
23680;SDS011;62915;50.832;4.462;2022-11-15T15:10:15;5.00;;;2.17;;
23680;SDS011;62915;50.832;4.462;2022-11-15T15:12:41;6.10;;;2.38;;
23680;SDS011;62915;50.832;4.462;2022-11-15T15:15:25;4.35;;;1.63;;
23680;SDS011;62915;50.832;4.462;2022-11-15T15:17:55;5.35;;;2.45;;
23680;SDS011;62915;50.832;4.462;2022-11-15T15:20:20;2.30;;;1.90;;
23680;SDS011;62915;50.832;4.462;2022-11-15T15:22:46;4.70;;;1.83;;
23680;SDS011;62915;50.832;4.462;2022-11-15T15:25:28;4.47;;;2.25;;
23680;SDS011;62915;50.832;4.462;2022-11-15T15:27:56;2.70;;;1.92;;
23680;SDS011;62915;50.832;4.462;2022-11-15T15:30:23;2.92;;;2.00;;
23680;SDS011;62915;50.832;4.462;2022-11-15T15:32:49;3.05;;;1.90;;
23680;SDS011;62915;50.832;4.462;2022-11-15T15:35:15;3.33;;;2.60;;
23680;SDS011;62915;50.832;4.462;2022-11-15T15:37:42;3.83;;;2.30;;
23680;SDS011;62915;50.832;4.462;2022-11-15T15:40:16;4.45;;;2.45;;
23680;SDS011;62915;50.832;4.462;2022-11-15T15:42:44;3.55;;;1.90;;
23680;SDS011;62915;50.832;4.462;2022-11-15T15:45:10;3.85;;;2.30;;
23680;SDS011;62915;50.832;4.462;2022-11-15T15:47:36;3.88;;;2.40;;
23680;SDS011;62915;50.832;4.462;2022-11-15T15:50:02;5.38;;;2.35;;
23680;SDS011;62915;50.832;4.462;2022-11-15T15:52:29;4.53;;;2.72;;
23680;SDS011;62915;50.832;4.462;2022-11-15T15:54:54;11.55;;;8.05;;
23680;SDS011;62915;50.832;4.462;2022-11-15T15:57:20;7.78;;;4.45;;
23680;SDS011;62915;50.832;4.462;2022-11-15T15:59:47;4.82;;;3.47;;
23680;SDS011;62915;50.832;4.462;2022-11-15T16:02:13;7.05;;;3.55;;
23680;SDS011;62915;50.832;4.462;2022-11-15T16:04:39;5.00;;;3.03;;
23680;SDS011;62915;50.832;4.462;2022-11-15T16:07:05;4.93;;;3.13;;
23680;SDS011;62915;50.832;4.462;2022-11-15T16:09:37;3.17;;;2.58;;
23680;SDS011;62915;50.832;4.462;2022-11-15T16:12:21;5.28;;;2.40;;
23680;SDS011;62915;50.832;4.462;2022-11-15T16:14:46;3.47;;;2.80;;
23680;SDS011;62915;50.832;4.462;2022-11-15T16:17:20;6.53;;;3.15;;
23680;SDS011;62915;50.832;4.462;2022-11-15T16:19:47;3.83;;;2.92;;
23680;SDS011;62915;50.832;4.462;2022-11-15T16:22:13;4.63;;;3.35;;
23680;SDS011;62915;50.832;4.462;2022-11-15T16:24:38;5.15;;;3.88;;
23680;SDS011;62915;50.832;4.462;2022-11-15T16:27:04;6.90;;;4.18;;
23680;SDS011;62915;50.832;4.462;2022-11-15T16:29:30;4.05;;;3.30;;
23680;SDS011;62915;50.832;4.462;2022-11-15T16:31:56;5.10;;;3.42;;
23680;SDS011;62915;50.832;4.462;2022-11-15T16:34:22;4.85;;;3.95;;
23680;SDS011;62915;50.832;4.462;2022-11-15T16:36:49;6.32;;;4.30;;
23680;SDS011;62915;50.832;4.462;2022-11-15T16:39:15;6.30;;;3.55;;
23680;SDS011;62915;50.832;4.462;2022-11-15T16:41:43;3.88;;;3.40;;
23680;SDS011;62915;50.832;4.462;2022-11-15T16:44:12;11.75;;;7.35;;
23680;SDS011;62915;50.832;4.462;2022-11-15T16:46:38;11.60;;;8.55;;
23680;SDS011;62915;50.832;4.462;2022-11-15T16:49:13;9.65;;;5.43;;
23680;SDS011;62915;50.832;4.462;2022-11-15T16:51:39;8.88;;;5.05;;
23680;SDS011;62915;50.832;4.462;2022-11-15T16:54:06;7.40;;;5.43;;
23680;SDS011;62915;50.832;4.462;2022-11-15T16:56:32;9.73;;;7.32;;
23680;SDS011;62915;50.832;4.462;2022-11-15T16:58:59;10.73;;;7.25;;
23680;SDS011;62915;50.832;4.462;2022-11-15T17:01:26;12.45;;;9.23;;
23680;SDS011;62915;50.832;4.462;2022-11-15T17:03:55;9.25;;;7.57;;
23680;SDS011;62915;50.832;4.462;2022-11-15T17:06:21;8.93;;;5.95;;
23680;SDS011;62915;50.832;4.462;2022-11-15T17:08:47;8.25;;;6.65;;
23680;SDS011;62915;50.832;4.462;2022-11-15T17:11:14;8.60;;;6.70;;
23680;SDS011;62915;50.832;4.462;2022-11-15T17:13:43;9.15;;;6.63;;
23680;SDS011;62915;50.832;4.462;2022-11-15T17:16:10;8.90;;;6.20;;
23680;SDS011;62915;50.832;4.462;2022-11-15T17:18:37;5.88;;;4.90;;
23680;SDS011;62915;50.832;4.462;2022-11-15T17:21:08;6.60;;;5.78;;
23680;SDS011;62915;50.832;4.462;2022-11-15T17:23:37;7.53;;;6.10;;
23680;SDS011;62915;50.832;4.462;2022-11-15T17:26:04;12.57;;;8.80;;
23680;SDS011;62915;50.832;4.462;2022-11-15T17:28:31;15.27;;;11.40;;